WEATHER DATA

YESTERDAY
Time Temp. Dewp. Hum. Wind dir Wind speed Wind gust Bar. 1h Prec. 24h Prec.
00:01 16.3 12.3 77 270 0.3 1.1 1025.6 0.0000 0.0000
00:12 16.3 12.3 77 315 0.3 1.1 1025.7 0.0000 0.0000
00:21 16.2 12.2 77 55 0.3 1.1 1025.6 0.0000 0.0000
00:31 16.2 12.2 77 90 0.3 1.1 1025.6 0.0000 0.0000
00:42 16.2 12.2 77 225 0.3 1.4 1025.6 0.0000 0.0000
00:52 16.2 12.2 77 232 0.3 1.4 1025.5 0.0000 0.0000
01:02 16.2 12.2 77 135 0.3 1.1 1025.6 0.0000 0.0000
01:12 16.2 12.2 77 225 0.3 1.1 1025.5 0.0000 0.0000
01:23 16.2 12.2 77 239 0.3 1.1 1025.5 0.0000 0.0000
01:33 16.1 12.1 77 270 0.3 1.4 1025.5 0.0000 0.0000
01:42 16.1 12.1 77 225 0.3 0.8 1025.4 0.0000 0.0000
01:53 16.1 12.1 77 180 0.3 1.1 1025.4 0.0000 0.0000
02:03 16.1 12.1 77 240 0.3 1.1 1025.4 0.0000 0.0000
02:13 16.1 12.1 77 217 0.3 1.1 1025.4 0.0000 0.0000
02:23 16 12 77 225 0.3 1.1 1025.4 0.0000 0.0000
02:34 16 12 77 225 0.3 1.1 1025.3 0.0000 0.0000
02:44 16 12 77 225 0.3 1.1 1025.3 0.0000 0.0000
02:53 15.9 11.9 77 230 0.3 1.1 1025.2 0.0000 0.0000
03:03 15.9 11.9 77 270 0.3 1.1 1025.2 0.0000 0.0000
03:14 15.9 11.9 77 52 0.3 1.4 1025.1 0.0000 0.0000
03:24 15.8 11.8 77 135 0.3 1.1 1025 0.0000 0.0000
03:34 15.7 11.7 77 240 0.3 1.1 1024.9 0.0000 0.0000
03:44 15.7 11.5 76 161 0.3 1.1 1024.9 0.0000 0.0000
03:55 15.7 11.5 76 237 0.3 1.1 1024.8 0.0000 0.0000
04:04 15.6 11.4 76 90 0.3 1.4 1024.7 0.0000 0.0000
04:14 15.6 11.4 76 235 0.3 1.1 1024.6 0.0000 0.0000
04:25 15.6 11.4 76 225 0.3 0.8 1024.6 0.0000 0.0000
04:35 15.6 11.4 76 225 0.3 0.8 1024.6 0.0000 0.0000
04:45 15.6 11.4 76 229 0.3 0.8 1024.6 0.0000 0.0000
04:55 15.6 11.4 76 225 0.3 0.8 1024.5 0.0000 0.0000
05:06 15.5 11.5 77 225 0.3 0.8 1024.6 0.0000 0.0000
05:16 15.5 11.5 77 220 0.3 0.8 1024.5 0.0000 0.0000
05:25 15.4 11.4 77 225 0.3 1.1 1024.6 0.0000 0.0000
05:36 15.3 11.3 77 215 0.3 0.8 1024.6 0.0000 0.0000
05:46 15.3 11.3 77 225 0.3 0.8 1024.7 0.0000 0.0000
05:56 15.3 11.3 77 225 0.3 0.8 1024.7 0.0000 0.0000
06:06 15.3 11.3 77 225 0.3 0.8 1024.7 0.0000 0.0000
06:17 15.3 11.5 78 225 0.3 0.8 1024.7 0.0000 0.0000
06:27 15.3 11.5 78 229 0.3 0.8 1024.7 0.0000 0.0000
06:36 15.4 11.6 78 233 0.3 0.8 1024.6 0.0000 0.0000
06:46 15.4 11.6 78 60 0.3 0.8 1024.6 0.0000 0.0000
06:57 15.5 11.7 78 135 0.3 0.8 1024.7 0.0000 0.0000
07:07 15.6 11.8 78 123 0.8 1.4 1024.7 0.0000 0.0000
07:17 15.6 11.8 78 18 0.3 0.8 1024.8 0.0000 0.0000
07:27 15.7 11.9 78 90 0.3 1.1 1024.9 0.0000 0.0000
07:38 15.8 12 78 225 0.3 0.8 1024.9 0.0000 0.0000
07:48 15.9 12.1 78 240 0.3 0.8 1024.9 0.0000 0.0000
07:57 15.9 12.1 78 208 0.3 1.1 1024.9 0.0000 0.0000
08:08 16 12.2 78 270 0.3 0.8 1024.8 0.0000 0.0000
08:18 16.1 12.3 78 270 0.3 1.1 1024.9 0.0000 0.0000
08:28 16.2 12.4 78 270 0.3 1.1 1024.9 0.0000 0.0000
08:38 16.3 12.5 78 53 0.3 1.4 1024.9 0.0000 0.0000
08:49 16.4 12.6 78 161 0.3 1.4 1024.9 0.0000 0.0000
08:59 16.6 12.8 78 315 0.3 1.1 1024.9 0.0000 0.0000
09:08 16.7 12.8 78 180 0.3 0.8 1025 0.0000 0.0000
09:19 16.8 12.9 78 90 0.3 1.1 1025 0.0000 0.0000
09:29 17 13.1 78 64 0.8 1.7 1025 0.0000 0.0000
09:39 17.2 13.3 78 90 0.3 1.1 1025 0.0000 0.0000
09:49 17.4 13.3 77 56 0.8 1.7 1024.9 0.0000 0.0000
10:00 17.7 13.6 77 49 0.8 1.7 1024.9 0.0000 0.0000
10:09 17.7 13.6 77 90 1.1 2.5 1024.9 0.0000 0.0000
10:19 17.8 13.7 77 58 0.8 1.7 1024.9 0.0000 0.0000
10:29 18 13.9 77 122 0.8 1.7 1024.9 0.0000 0.0000
10:40 18.2 14.1 77 54 0.8 1.7 1024.9 0.0000 0.0000
10:50 18.3 14.2 77 59 0.8 2.2 1024.8 0.0000 0.0000
11:00 18.4 14.1 76 62 0.8 1.4 1024.8 0.0000 0.0000
11:10 18.3 14 76 54 0.8 1.7 1024.8 0.0000 0.0000
11:21 18.2 13.9 76 315 0.8 2.2 1024.8 0.0000 0.0000
11:30 18.2 13.9 76 52 0.8 2.5 1024.6 0.0000 0.0000
11:40 18.2 13.9 76 45 0.8 2.5 1024.6 0.0000 0.0000
11:51 18.3 14 76 299 0.8 2.5 1024.6 0.0000 0.0000
12:01 18.7 14.6 77 90 0.3 1.1 1024.6 0.0000 0.0000
12:11 19 14.9 77 55 0.8 1.7 1024.6 0.0000 0.0000
12:21 19.2 15.1 77 68 0.8 2.2 1024.5 0.0000 0.0000
12:32 19.1 15 77 45 0.8 2.2 1024.5 0.0000 0.0000
12:41 19.1 15 77 52 0.8 2.5 1024.5 0.0000 0.0000
12:51 19.2 14.9 76 90 0.3 1.7 1024.5 0.0000 0.0000
13:02 19.5 15.2 76 68 0.8 2.2 1024.4 0.0000 0.0000
13:12 19.8 15.7 77 90 0.3 1.4 1024.3 0.0000 0.0000
13:22 19.9 15.5 76 288 0.8 2.2 1024.3 0.0000 0.0000
13:32 20 15.6 76 270 0.8 2.2 1024.2 0.0000 0.0000
13:43 20.3 15.9 76 90 0.3 1.7 1024.1 0.0000 0.0000
13:52 20.5 16.1 76 315 0.8 2.8 1024.1 0.0000 0.0000
14:02 20.5 16.1 76 57 0.8 3.1 1024 0.0000 0.0000
14:13 20.7 16.3 76 39 0.8 2.5 1023.8 0.0000 0.0000
14:23 20.9 16.5 76 50 0.8 2.5 1023.8 0.0000 0.0000
14:33 21.1 16.5 75 270 0.8 1.7 1023.8 0.0000 0.0000
14:43 21.3 16.7 75 37 1.1 3.6 1023.8 0.0000 0.0000
14:54 21.6 17 75 47 0.8 2.2 1023.8 0.0000 0.0000
15:04 21.7 17.1 75 12 0.8 2.2 1023.7 0.0000 0.0000
15:13 21.8 17.2 75 56 0.8 2.2 1023.7 0.0000 0.0000
15:23 21.8 17.2 75 56 0.8 3.1 1023.6 0.0000 0.0000
15:34 22 17.4 75 259 0.8 1.7 1023.6 0.0000 0.0000
15:44 22.4 18 76 20 0.8 2.5 1023.6 0.0000 0.0000
15:54 22.4 17.8 75 90 0.8 2.5 1023.5 0.0000 0.0000
16:04 22.6 17.9 75 36 0.8 2.5 1023.6 0.0000 0.0000
16:14 22.4 17.8 75 50 0.8 2.2 1023.5 0.0000 0.0000
16:24 22.5 17.8 75 25 0.3 1.7 1023.5 0.0000 0.0000
16:34 22.6 17.9 75 36 1.1 2.5 1023.5 0.0000 0.0000
16:45 22.5 17.8 75 305 0.8 2.5 1023.3 0.0000 0.0000
16:55 22.7 18 75 62 0.8 1.7 1023.2 0.0000 0.0000
17:05 23.1 18.4 75 45 0.8 2.5 1023.1 0.0000 0.0000
17:17 23.2 18.5 75 234 0.8 1.7 1023 0.0000 0.0000
17:20 23.3 18.6 75 210 1.1 4.7 1022.8 0.0000 0.0000
17:30 23.5 18.8 75 35 0.8 2.5 1022.9 0.0000 0.0000
17:40 23.2 18.5 75 45 0.8 2.2 1022.8 0.0000 0.0000
17:50 23.2 18.3 74 45 0.8 1.7 1022.7 0.0000 0.0000
18:01 23.3 18.4 74 45 0.8 1.7 1022.6 0.0000 0.0000
18:10 23.4 18.5 74 45 1.1 2.5 1022.6 0.0000 0.0000
18:20 23.3 18.4 74 45 0.8 1.7 1022.6 0.0000 0.0000
18:31 23.2 18.3 74 36 0.8 1.4 1022.5 0.0000 0.0000
18:41 23.2 18.3 74 348 0.8 1.7 1022.5 0.0000 0.0000
18:50 23.2 18.3 74 348 0.8 1.7 1022.5 0.0000 0.0000
19:00 23.1 18.2 74 45 0.8 1.7 1022.5 0.0000 0.0000
19:11 23 18.1 74 32 0.8 2.2 1022.6 0.0000 0.0000
19:21 22.9 18 74 21 0.8 1.7 1022.5 0.0000 0.0000
19:30 22.9 18 74 45 1.1 2.5 1022.5 0.0000 0.0000
19:41 22.8 17.9 74 355 0.3 1.7 1022.5 0.0000 0.0000
19:51 22.6 17.7 74 47 0.8 2.5 1022.5 0.0000 0.0000
20:00 22.5 17.6 74 64 0.8 2.8 1022.5 0.0000 0.0000
20:11 22.3 17.4 74 62 0.8 1.7 1022.4 0.0000 0.0000
20:21 22.1 17 73 53 0.8 2.5 1022.4 0.0000 0.0000
20:31 21.8 16.7 73 45 0.8 1.4 1022.4 0.0000 0.0000
20:40 21.6 16.8 74 45 0.3 1.7 1022.4 0.0000 0.0000
20:51 21.3 16.3 73 61 0.8 3.1 1022.4 0.0000 0.0000
21:01 21.1 16.3 74 69 0.8 1.4 1022.3 0.0000 0.0000
21:11 20.9 16.1 74 64 1.1 2.5 1022.3 0.0000 0.0000
21:21 20.6 15.8 74 48 0.8 1.7 1022.4 0.0000 0.0000
21:31 20.4 15.6 74 15 0.8 1.4 1022.4 0.0000 0.0000
21:41 20.1 15.3 74 348 0.3 1.1 1022.4 0.0000 0.0000
21:51 19.8 15 74 270 0.3 1.4 1022.4 0.0000 0.0000
22:01 19.5 15 75 270 0.3 1.4 1022.4 0.0000 0.0000
22:11 19.2 14.7 75 239 0.3 1.1 1022.5 0.0000 0.0000
22:21 19 14.5 75 270 0.3 1.1 1022.5 0.0000 0.0000
22:31 18.7 14.2 75 270 0.3 1.1 1022.5 0.0000 0.0000
22:41 18.4 13.9 75 240 0.3 1.1 1022.6 0.0000 0.0000
22:51 18.2 13.9 76 270 0.3 1.1 1022.5 0.0000 0.0000
23:01 18 13.7 76 270 0.3 1.1 1022.4 0.0000 0.0000
23:11 17.8 13.5 76 270 0.3 0.8 1022.5 0.0000 0.0000
23:21 17.6 13.3 76 270 0.3 1.1 1022.5 0.0000 0.0000
23:31 17.5 13.2 76 270 0.3 1.1 1022.5 0.0000 0.0000
23:42 17.3 13.2 77 310 0.3 1.4 1022.5 0.0000 0.0000
23:51 17.1 13 77 352 0.3 1.4 1022.5 0.0000 0.0000

DAY STATISTIC

2019-07-16
TEMPERATURE
AVERAGE
18.7
HIGH
23.5
17:30
LOW
15.3
05:36
PRESSURE
AVERAGE
1024.0
HIGH
1025.7
00:12
LOW
1022.3
21:01
DEWPOINT
AVERAGE
14.4
HIGH
18.8
17:30
LOW
11.3
05:36
HUMIDITY
AVERAGE
76
HIGH
78
06:17
LOW
73
20:21
WIND SPEED
AVERAGE
0.5
HIGH
1.1
10:09
WIND GUST
AVERAGE
1.6
HIGH
4.7
17:20
WIND DIRECTION
PREVAILING
NE
34.3%
N
7.0
NE
34.3
E
9.8
SE
3.5
S
2.8
SW
24.5
W
13.3
NW
4.9
PRECIPITATION
RAIN HOUR
0.0
RAIN DAY
0.0
TEMPERATURE (°C)
LOW
15.3
HIGH
23.5
AVERAGE
18.7
PRESSURE (hpa)
LOW
1022.3
HIGH
1025.7
AVERAGE
1024.0
DEVICE